Mehriz, Iran
Current Conditions -  °F | °C
As of 9:30 AM on Tuesday 21 Oct 2014 (Local Time) from OIYY Reporting Station
Few Clouds Few Clouds  
Wind Chill: 79°   Ceiling: Unl
Heat Index: 79°   Visibility: 6mi
Dew Point: 32°   Wind: 12mph
Humidity: 18%   Direction: 120°ESE
Pressure: 30.09"   Gusts: NA
Location:  31.58°N, 54.45°E
Report Text: OIYY 210530Z 12010KT 9999 FEW040 26/00 Q1019
Loading
Personal Weather Stations






























Interactive Weather Map
Tropical Storm Tracking
New forecast layout! Learn more

10-Day Weather Forecast

Advertisements
Track Severe Weather on mobile